Time;durP1;ratioP1;P1;durP2;ratioP2;P2;SDS_P1;SDS_P2;PMS_P1;PMS_P2;Temp;Humidity;BMP_temperature;BMP_pressure;BME280_temperature;BME280_humidity;BME280_pressure;Samples;Min_cycle;Max_cycle;Signal;HPM_P1;HPM_P2
2021/03/19 00:00:21;;;;;;;9.97;3.90;;;3.70;97.40;;;;;;5035883;28;20053;-81
2021/03/19 00:02:50;;;;;;;5.70;4.17;;;3.70;97.40;;;;;;5055613;28;20025;-80
2021/03/19 00:05:17;;;;;;;11.63;4.97;;;3.60;97.50;;;;;;5039267;28;20033;-81
2021/03/19 00:07:53;;;;;;;8.33;4.90;;;3.50;97.50;;;;;;5055095;28;20510;-80
2021/03/19 00:10:24;;;;;;;12.90;5.07;;;3.50;97.60;;;;;;5063219;28;20476;-81
2021/03/19 00:12:52;;;;;;;8.83;4.63;;;3.40;97.60;;;;;;5067947;28;20052;-81
2021/03/19 00:15:21;;;;;;;9.53;4.10;;;3.40;97.60;;;;;;5023298;28;20047;-80
2021/03/19 00:17:48;;;;;;;10.47;5.00;;;3.30;97.70;;;;;;5054305;28;20028;-82
2021/03/19 00:20:16;;;;;;;11.23;5.47;;;3.20;97.70;;;;;;5062649;28;20044;-81
2021/03/19 00:22:43;;;;;;;10.50;6.10;;;3.20;97.80;;;;;;5081208;28;20040;-81
2021/03/19 00:25:11;;;;;;;17.97;8.13;;;3.10;97.80;;;;;;5051345;28;20029;-80
2021/03/19 00:27:38;;;;;;;22.57;14.33;;;3.10;97.90;;;;;;5057494;28;20055;-80
2021/03/19 00:30:08;;;;;;;20.13;10.80;;;3.10;97.90;;;;;;5061714;28;20059;-81
2021/03/19 00:32:38;;;;;;;19.07;9.73;;;3.00;98.00;;;;;;5063369;28;20037;-81
2021/03/19 00:35:11;;;;;;;10.30;6.33;;;2.90;98.00;;;;;;5067416;28;20692;-80
2021/03/19 00:37:38;;;;;;;12.07;6.60;;;2.90;98.00;;;;;;5044827;28;20412;-80
2021/03/19 00:40:10;;;;;;;12.63;7.23;;;2.90;98.10;;;;;;5056509;28;20508;-80
2021/03/19 00:42:38;;;;;;;10.57;6.43;;;2.80;98.10;;;;;;5054627;28;20395;-80
2021/03/19 00:45:07;;;;;;;9.20;5.87;;;2.80;98.20;;;;;;5079976;28;20036;-80
2021/03/19 00:47:34;;;;;;;12.23;7.23;;;2.70;98.20;;;;;;5081149;28;20048;-80
2021/03/19 00:50:03;;;;;;;11.00;6.40;;;2.70;98.30;;;;;;5048611;28;20394;-80
2021/03/19 00:52:30;;;;;;;7.50;5.50;;;2.70;98.30;;;;;;5076985;28;20390;-79
2021/03/19 00:54:56;;;;;;;8.43;6.23;;;2.60;98.30;;;;;;5054852;28;20039;-79
2021/03/19 00:57:23;;;;;;;11.87;6.60;;;2.60;98.40;;;;;;5055640;28;20048;-79
2021/03/19 00:59:49;;;;;;;9.20;5.53;;;2.60;98.40;;;;;;5016241;28;20048;-80
2021/03/19 01:02:16;;;;;;;12.70;7.97;;;2.50;98.50;;;;;;5078067;28;20056;-80
2021/03/19 01:04:43;;;;;;;9.90;6.63;;;2.50;98.50;;;;;;5024837;28;20032;-79
2021/03/19 01:07:11;;;;;;;10.87;7.43;;;2.50;98.60;;;;;;5075186;28;20041;-80
2021/03/19 01:09:37;;;;;;;15.43;7.50;;;2.40;98.60;;;;;;5082073;28;20048;-80
2021/03/19 01:12:04;;;;;;;10.63;6.97;;;2.40;98.90;;;;;;5047971;28;20040;-79
2021/03/19 01:14:31;;;;;;;12.40;7.10;;;2.40;98.70;;;;;;5058434;28;20045;-80
2021/03/19 01:16:57;;;;;;;12.33;6.90;;;2.30;98.70;;;;;;5045763;28;20390;-81
2021/03/19 01:19:24;;;;;;;8.77;6.23;;;2.30;98.80;;;;;;5041017;28;20059;-80
2021/03/19 01:21:50;;;;;;;24.90;15.73;;;2.30;98.80;;;;;;5044303;28;20032;-81
2021/03/19 01:24:17;;;;;;;41.13;22.80;;;2.30;98.80;;;;;;5044325;28;20036;-81
2021/03/19 01:26:44;;;;;;;31.60;18.23;;;2.30;98.90;;;;;;5060686;28;20055;-81
2021/03/19 01:29:10;;;;;;;26.17;16.87;;;2.20;98.90;;;;;;5042389;28;20033;-81
2021/03/19 01:31:37;;;;;;;31.63;18.00;;;2.20;98.90;;;;;;5079042;28;20403;-80
2021/03/19 01:34:04;;;;;;;21.93;14.80;;;2.20;99.00;;;;;;5044849;28;20499;-80
2021/03/19 01:36:30;;;;;;;29.50;17.40;;;2.20;99.10;;;;;;5054390;28;20418;-80
2021/03/19 01:38:56;;;;;;;17.57;12.37;;;2.20;99.20;;;;;;5056091;28;20071;-78
2021/03/19 01:41:23;;;;;;;18.23;10.80;;;2.20;99.20;;;;;;5077480;28;20055;-80
2021/03/19 01:44:28;;;;;;;23.40;12.50;;;2.20;99.20;;;;;;5056097;28;20713;-80
2021/03/19 01:47:32;;;;;;;20.50;11.73;;;2.20;99.20;;;;;;5025420;28;20399;-80
2021/03/19 01:50:36;;;;;;;17.63;10.40;;;2.20;99.30;;;;;;5056547;28;20049;-80
2021/03/19 01:53:40;;;;;;;21.87;11.63;;;2.20;99.30;;;;;;5057271;28;20032;-80
2021/03/19 01:56:44;;;;;;;13.80;8.73;;;2.10;99.20;;;;;;5036748;28;20020;-79
2021/03/19 01:59:48;;;;;;;13.40;8.63;;;2.10;99.20;;;;;;5069403;28;20037;-80
2021/03/19 02:02:52;;;;;;;13.23;8.03;;;2.00;99.20;;;;;;5061573;28;21238;-80
2021/03/19 02:05:57;;;;;;;16.00;7.83;;;2.00;99.30;;;;;;5059905;28;20047;-79
2021/03/19 02:09:01;;;;;;;15.10;8.63;;;1.90;99.30;;;;;;5067451;28;20041;-80
2021/03/19 02:12:05;;;;;;;19.33;11.23;;;1.90;99.30;;;;;;5077063;28;20037;-80
2021/03/19 02:15:09;;;;;;;17.93;11.23;;;1.80;99.40;;;;;;5075406;28;20491;-80
2021/03/19 02:18:13;;;;;;;19.53;12.37;;;1.80;99.50;;;;;;5077207;28;20040;-82
2021/03/19 02:21:17;;;;;;;23.43;13.07;;;1.80;99.50;;;;;;5074830;28;20499;-81
2021/03/19 02:24:22;;;;;;;16.60;10.20;;;1.80;99.60;;;;;;5065645;28;20043;-81
2021/03/19 02:27:26;;;;;;;19.30;11.20;;;1.80;99.60;;;;;;5077687;28;20040;-81
2021/03/19 02:30:30;;;;;;;17.80;9.40;;;1.70;99.50;;;;;;5071389;28;20484;-81
2021/03/19 02:32:57;;;;;;;45.53;27.70;;;1.70;99.50;;;;;;5069483;28;20056;-80
2021/03/19 02:35:24;;;;;;;40.67;26.87;;;1.70;99.60;;;;;;5065753;28;20044;-81
2021/03/19 02:37:51;;;;;;;25.63;15.03;;;1.70;99.60;;;;;;5064346;28;20418;-81
2021/03/19 02:40:22;;;;;;;18.30;11.77;;;1.70;99.60;;;;;;5054112;28;20051;-81
2021/03/19 02:42:49;;;;;;;17.30;10.07;;;1.70;99.60;;;;;;5077437;28;20066;-80
2021/03/19 02:45:22;;;;;;;25.43;14.03;;;1.60;99.60;;;;;;5055849;28;20036;-81
2021/03/19 02:47:49;;;;;;;;;;;1.60;99.60;;;;;;5074786;28;20040;-85
2021/03/19 02:50:18;;;;;;;20.27;9.53;;;1.50;99.60;;;;;;5075388;28;20346;-80
2021/03/19 02:52:44;;;;;;;19.30;9.60;;;1.50;99.60;;;;;;5074365;28;20826;-80
2021/03/19 02:55:14;;;;;;;17.00;10.43;;;1.40;99.60;;;;;;5059854;28;20506;-80
2021/03/19 02:57:41;;;;;;;17.33;9.90;;;1.40;99.60;;;;;;5074973;28;20035;-80
2021/03/19 03:00:12;;;;;;;14.70;8.63;;;1.40;99.60;;;;;;5076630;28;20040;-80
2021/03/19 03:02:38;;;;;;;15.33;9.80;;;1.30;99.60;;;;;;5075167;28;20415;-80
2021/03/19 03:05:05;;;;;;;13.63;9.33;;;1.30;99.60;;;;;;5074761;28;20059;-80
2021/03/19 03:07:32;;;;;;;15.43;9.70;;;1.30;99.70;;;;;;5067125;28;20047;-81
2021/03/19 03:10:00;;;;;;;13.43;9.40;;;1.20;99.60;;;;;;5043567;28;20040;-81
2021/03/19 03:12:28;;;;;;;15.30;9.53;;;1.20;99.70;;;;;;5038838;28;20045;-80
2021/03/19 03:14:55;;;;;;;17.23;9.33;;;1.20;99.70;;;;;;5046217;28;20506;-80
2021/03/19 03:17:22;;;;;;;12.80;8.73;;;1.20;99.70;;;;;;5043995;28;20037;-80
2021/03/19 03:19:49;;;;;;;34.23;20.03;;;1.10;99.70;;;;;;5060538;28;20041;-80
2021/03/19 03:22:15;;;;;;;30.80;19.23;;;1.20;99.70;;;;;;5041321;28;20056;-80
2021/03/19 03:24:42;;;;;;;41.33;22.87;;;1.10;99.70;;;;;;5069996;28;20029;-80
2021/03/19 03:27:09;;;;;;;33.67;18.10;;;1.10;99.70;;;;;;5022860;28;20043;-82
2021/03/19 03:29:37;;;;;;;29.80;16.97;;;1.10;99.70;;;;;;5029784;28;20389;-80
2021/03/19 03:32:05;;;;;;;21.20;12.43;;;1.10;99.70;;;;;;5041006;28;20052;-80
2021/03/19 03:34:33;;;;;;;24.03;11.77;;;1.00;99.70;;;;;;5066732;28;20400;-80
2021/03/19 03:37:00;;;;;;;14.43;8.87;;;1.10;99.80;;;;;;5021233;28;20060;-80
2021/03/19 03:39:30;;;;;;;15.97;9.77;;;1.00;99.70;;;;;;5021704;28;20048;-80
2021/03/19 03:41:58;;;;;;;20.33;11.17;;;1.00;99.80;;;;;;5041526;28;20484;-80
2021/03/19 03:44:25;;;;;;;25.57;13.20;;;1.00;99.80;;;;;;5030861;28;20036;-80
2021/03/19 03:46:51;;;;;;;19.00;9.50;;;1.00;99.80;;;;;;5022285;28;20108;-80
2021/03/19 03:49:18;;;;;;;19.93;9.83;;;0.90;99.80;;;;;;5055682;28;20056;-80
2021/03/19 03:51:46;;;;;;;15.00;9.53;;;0.90;99.80;;;;;;5057847;28;20025;-80
2021/03/19 03:54:13;;;;;;;22.80;12.57;;;0.90;99.90;;;;;;5056701;28;20361;-80
2021/03/19 03:56:41;;;;;;;17.33;9.73;;;0.90;99.90;;;;;;5036704;28;20088;-80
2021/03/19 03:59:07;;;;;;;17.57;9.53;;;0.90;99.90;;;;;;5031618;28;20056;-80
2021/03/19 04:01:37;;;;;;;15.20;9.00;;;0.90;99.90;;;;;;5004438;28;20041;-80
2021/03/19 04:04:05;;;;;;;15.33;8.77;;;0.90;99.90;;;;;;5019212;28;20036;-80
2021/03/19 04:06:32;;;;;;;18.80;10.70;;;0.90;99.90;;;;;;5034836;28;20036;-80
2021/03/19 04:08:58;;;;;;;19.40;9.90;;;0.80;99.90;;;;;;5035924;28;20495;-81
2021/03/19 04:11:25;;;;;;;16.70;9.70;;;0.80;99.90;;;;;;5068814;28;20040;-81
2021/03/19 04:13:52;;;;;;;14.13;8.23;;;0.80;99.90;;;;;;5061709;28;20044;-80
2021/03/19 04:16:19;;;;;;;15.50;9.30;;;0.80;99.90;;;;;;5077243;28;20063;-80
2021/03/19 04:18:46;;;;;;;18.10;9.27;;;0.80;99.90;;;;;;5053377;28;20041;-80
2021/03/19 04:21:13;;;;;;;19.40;8.50;;;0.70;99.90;;;;;;5073963;28;20036;-81
2021/03/19 04:23:43;;;;;;;16.80;8.87;;;0.70;99.90;;;;;;5073654;28;20047;-80
2021/03/19 04:26:30;;;;;;;17.37;8.53;;;0.70;99.90;;;;;;5059779;28;20024;-80
2021/03/19 04:28:57;;;;;;;18.30;8.90;;;0.70;99.90;;;;;;5072632;28;20543;-80
2021/03/19 04:31:25;;;;;;;18.90;9.87;;;0.60;99.90;;;;;;5076722;28;20036;-81
2021/03/19 04:33:52;;;;;;;10.77;7.43;;;0.60;99.90;;;;;;5072159;28;20115;-80
2021/03/19 04:36:44;;;;;;;13.97;8.43;;;0.60;99.90;;;;;;5073908;28;20028;-81
2021/03/19 04:39:16;;;;;;;15.32;8.20;;;0.60;99.90;;;;;;5071836;28;20052;-80
2021/03/19 04:41:46;;;;;;;17.37;8.13;;;0.60;99.90;;;;;;5079350;28;20032;-80
2021/03/19 04:44:13;;;;;;;18.30;9.00;;;0.60;99.90;;;;;;5077325;28;20036;-81
2021/03/19 04:46:40;;;;;;;16.37;9.73;;;0.60;99.90;;;;;;5078594;28;20498;-80
2021/03/19 04:49:08;;;;;;;23.47;9.33;;;0.60;99.90;;;;;;5081021;28;20029;-80
2021/03/19 04:51:34;;;;;;;17.60;8.87;;;0.60;99.90;;;;;;5076834;28;20063;-77
2021/03/19 04:54:01;;;;;;;33.73;17.47;;;0.50;99.90;;;;;;5084898;28;20028;-81
2021/03/19 04:56:28;;;;;;;19.27;10.70;;;0.50;99.90;;;;;;5060906;28;20047;-81
2021/03/19 04:58:55;;;;;;;20.23;8.70;;;0.50;99.90;;;;;;5065538;28;20373;-81
2021/03/19 05:01:21;;;;;;;16.40;8.17;;;0.50;99.90;;;;;;5072433;28;20071;-81
2021/03/19 05:03:49;;;;;;;21.67;9.73;;;0.50;99.90;;;;;;5080279;28;20037;-81
2021/03/19 05:06:17;;;;;;;19.53;8.93;;;0.50;99.90;;;;;;5064733;28;20032;-83
2021/03/19 05:08:44;;;;;;;19.27;9.33;;;0.50;99.90;;;;;;5064948;28;20048;-82
2021/03/19 05:11:12;;;;;;;15.37;7.63;;;0.50;99.90;;;;;;5068878;28;20052;-84
2021/03/19 05:13:40;;;;;;;19.83;8.97;;;0.50;99.90;;;;;;5076462;28;20044;-83
2021/03/19 05:16:06;;;;;;;13.90;7.60;;;0.50;99.90;;;;;;5085365;28;20048;-83
2021/03/19 05:18:33;;;;;;;12.07;6.67;;;0.50;99.90;;;;;;5071798;28;20103;-78
2021/03/19 05:21:00;;;;;;;41.17;22.57;;;0.50;99.90;;;;;;5076238;28;20044;-81
2021/03/19 05:23:33;;;;;;;37.93;19.87;;;0.50;99.90;;;;;;5077088;28;20048;-81
2021/03/19 05:26:00;;;;;;;20.90;11.77;;;0.50;99.90;;;;;;5075964;28;20035;-83
2021/03/19 05:28:29;;;;;;;16.43;8.70;;;0.50;99.90;;;;;;5043781;28;20039;-82
2021/03/19 05:30:56;;;;;;;15.37;7.20;;;0.50;99.90;;;;;;5068528;28;20020;-81
2021/03/19 05:33:29;;;;;;;23.80;9.90;;;0.50;99.90;;;;;;5076501;28;20047;-81
2021/03/19 05:35:56;;;;;;;20.03;8.57;;;0.50;99.90;;;;;;5063471;28;20399;-81
2021/03/19 05:38:23;;;;;;;14.60;8.10;;;0.50;99.90;;;;;;5083332;28;20078;-81
2021/03/19 05:40:52;;;;;;;13.93;7.57;;;0.50;99.90;;;;;;5063870;28;20039;-81
2021/03/19 05:43:23;;;;;;;13.63;6.43;;;0.50;99.90;;;;;;5068126;28;20036;-81
2021/03/19 05:46:08;;;;;;;14.97;7.60;;;0.50;99.90;;;;;;5078551;28;20045;-81
2021/03/19 05:49:10;;;;;;;17.57;7.67;;;0.50;99.90;;;;;;5082852;28;20032;-81
2021/03/19 05:51:38;;;;;;;19.40;8.10;;;0.50;99.90;;;;;;5042241;28;20048;-81
2021/03/19 05:54:23;;;;;;;15.30;7.53;;;0.50;99.90;;;;;;5081048;28;20036;-81
2021/03/19 05:57:03;;;;;;;14.33;7.77;;;0.50;99.90;;;;;;5082963;28;20044;-81
2021/03/19 05:59:36;;;;;;;14.20;7.47;;;0.50;99.90;;;;;;5080606;28;20036;-80
2021/03/19 06:02:25;;;;;;;14.15;7.15;;;0.50;99.90;;;;;;5079530;28;20044;-81
2021/03/19 06:05:09;;;;;;;13.10;7.47;;;0.60;99.90;;;;;;5082232;28;20048;-81
2021/03/19 06:07:45;;;;;;;14.33;8.00;;;0.60;99.90;;;;;;5079539;28;20392;-81
2021/03/19 06:10:21;;;;;;;19.20;6.83;;;0.70;99.90;;;;;;5081123;28;20051;-81
2021/03/19 06:12:50;;;;;;;13.97;6.77;;;0.70;99.90;;;;;;5077292;28;20472;-80
2021/03/19 06:15:31;;;;;;;20.63;8.97;;;0.80;99.90;;;;;;5083010;28;20028;-81
2021/03/19 06:18:01;;;;;;;17.80;7.90;;;0.90;99.90;;;;;;5080632;28;20032;-81
2021/03/19 06:20:28;;;;;;;14.20;7.77;;;0.90;99.80;;;;;;5078890;28;20040;-81
2021/03/19 06:23:18;;;;;;;18.10;8.97;;;1.00;99.80;;;;;;5054051;28;20047;-81
2021/03/19 06:26:04;;;;;;;19.73;8.60;;;1.10;99.70;;;;;;5082337;28;20046;-81
2021/03/19 06:28:33;;;;;;;13.40;7.67;;;1.20;99.70;;;;;;5063892;28;20507;-81
2021/03/19 06:31:31;;;;;;;22.80;9.20;;;1.30;99.70;;;;;;5071040;28;20048;-81
2021/03/19 06:34:18;;;;;;;18.83;9.27;;;1.30;99.60;;;;;;5069223;28;20060;-81
2021/03/19 06:37:04;;;;;;;19.60;10.00;;;1.40;99.60;;;;;;5082796;28;20047;-81
2021/03/19 06:39:46;;;;;;;18.90;9.40;;;1.50;99.50;;;;;;5079044;28;20040;-80
2021/03/19 06:42:31;;;;;;;17.90;8.60;;;1.60;99.50;;;;;;5079851;28;20039;-81
2021/03/19 06:45:25;;;;;;;19.87;8.47;;;1.70;99.40;;;;;;5082542;28;20277;-80
2021/03/19 06:47:55;;;;;;;16.50;7.83;;;1.80;99.40;;;;;;5052370;28;20051;-80
2021/03/19 06:50:22;;;;;;;16.33;8.10;;;1.90;99.60;;;;;;5076702;28;20044;-81
2021/03/19 06:53:12;;;;;;;16.87;7.07;;;2.10;99.30;;;;;;5060047;28;20047;-81
2021/03/19 06:55:46;;;;;;;13.60;7.50;;;2.10;99.10;;;;;;5077849;28;20048;-80
2021/03/19 06:58:12;;;;;;;13.17;6.70;;;2.30;99.00;;;;;;5076261;28;20033;-81
2021/03/19 07:00:44;;;;;;;16.33;5.83;;;2.40;99.00;;;;;;5055021;28;20494;-80
2021/03/19 07:03:47;;;;;;;13.75;6.53;;;2.50;98.90;;;;;;5071258;28;20036;-81
2021/03/19 07:06:35;;;;;;;9.43;6.23;;;2.70;98.80;;;;;;5070893;28;20028;-80
2021/03/19 07:09:02;;;;;;;10.23;5.77;;;2.80;98.60;;;;;;5084999;28;20051;-77
2021/03/19 07:11:47;;;;;;;12.70;5.90;;;2.90;98.50;;;;;;5069952;28;20064;-77
2021/03/19 07:14:35;;;;;;;9.57;4.83;;;3.00;98.30;;;;;;5071381;28;20035;-77
2021/03/19 07:17:10;;;;;;;11.10;5.30;;;3.20;98.20;;;;;;5071402;28;20406;-76
2021/03/19 07:20:01;;;;;;;7.90;4.97;;;3.30;98.00;;;;;;5067204;28;20043;-77
2021/03/19 07:22:47;;;;;;;9.90;4.93;;;3.40;98.00;;;;;;5073230;28;20390;-76
2021/03/19 07:25:48;;;;;;;9.30;4.23;;;3.50;97.50;;;;;;5072421;28;20745;-76
2021/03/19 07:28:14;;;;;;;10.30;4.60;;;3.60;97.00;;;;;;5071040;28;20045;-77
2021/03/19 07:31:10;;;;;;;9.60;4.17;;;3.70;96.60;;;;;;5071985;28;20398;-76
2021/03/19 07:33:44;;;;;;;8.30;3.90;;;3.80;96.50;;;;;;5065203;28;20040;-79
2021/03/19 07:36:44;;;;;;;7.13;3.67;;;3.80;96.30;;;;;;5067754;28;20060;-79
2021/03/19 07:39:11;;;;;;;9.03;3.43;;;4.00;96.10;;;;;;5070933;28;20495;-84
2021/03/19 07:41:37;;;;;;;8.20;3.17;;;4.10;95.50;;;;;;5056301;28;20400;-77
2021/03/19 07:44:23;;;;;;;8.40;3.67;;;4.20;95.40;;;;;;5075977;28;20046;-76
2021/03/19 07:47:08;;;;;;;7.70;2.97;;;4.30;95.50;;;;;;5071802;28;20551;-76
2021/03/19 07:49:37;;;;;;;7.37;3.43;;;4.40;94.70;;;;;;5052952;28;20474;-76
2021/03/19 07:52:37;;;;;;;8.27;2.97;;;4.50;94.60;;;;;;5073682;28;20478;-77
2021/03/19 07:55:32;;;;;;;7.17;3.10;;;4.60;93.70;;;;;;5072667;28;20037;-76
2021/03/19 07:58:25;;;;;;;5.17;2.20;;;4.70;93.40;;;;;;5073276;28;20380;-76
2021/03/19 08:01:05;;;;;;;9.85;2.75;;;4.80;92.80;;;;;;5065855;28;20050;-76
2021/03/19 08:03:32;;;;;;;4.77;2.53;;;4.80;92.30;;;;;;5069373;28;20040;-76
2021/03/19 08:06:05;;;;;;;8.70;2.30;;;4.90;92.70;;;;;;5044299;28;20044;-76
2021/03/19 08:08:34;;;;;;;5.83;2.47;;;5.00;92.50;;;;;;5070597;28;20047;-76
2021/03/19 08:11:40;;;;;;;5.33;2.30;;;5.10;92.70;;;;;;5034322;28;20032;-76
2021/03/19 08:14:50;;;;;;;5.10;2.03;;;5.20;92.10;;;;;;5053158;28;20044;-76
2021/03/19 08:17:42;;;;;;;7.23;1.80;;;5.30;91.20;;;;;;5035892;28;20053;-76
2021/03/19 08:20:32;;;;;;;7.53;1.67;;;5.40;90.60;;;;;;5056372;28;20032;-76
2021/03/19 08:23:01;;;;;;;4.25;1.80;;;5.50;90.50;;;;;;5055199;28;20427;-76
2021/03/19 08:25:38;;;;;;;3.87;1.33;;;5.50;90.50;;;;;;5058894;28;20035;-76
2021/03/19 08:28:26;;;;;;;3.20;1.40;;;5.70;90.20;;;;;;5053792;28;20029;-76
2021/03/19 08:31:03;;;;;;;4.73;1.40;;;5.70;88.80;;;;;;5053199;28;20036;-77
2021/03/19 08:33:55;;;;;;;6.32;1.52;;;5.80;89.10;;;;;;5077150;28;20359;-78
2021/03/19 08:36:41;;;;;;;3.47;1.10;;;5.80;87.20;;;;;;5077151;28;20063;-78
2021/03/19 08:39:35;;;;;;;5.50;1.70;;;5.90;87.00;;;;;;5061825;28;20044;-77
2021/03/19 08:42:13;;;;;;;3.27;1.10;;;6.00;87.80;;;;;;5078021;28;20039;-77
2021/03/19 08:44:41;;;;;;;5.32;1.55;;;6.00;86.20;;;;;;5053177;28;20070;-77
2021/03/19 08:47:26;;;;;;;3.10;1.00;;;6.10;86.00;;;;;;5056763;28;20047;-77
2021/03/19 08:49:57;;;;;;;6.18;2.05;;;6.10;85.80;;;;;;5055830;28;20040;-78
2021/03/19 08:52:39;;;;;;;4.07;0.77;;;6.20;83.60;;;;;;5056416;28;20051;-77
2021/03/19 08:55:15;;;;;;;3.13;1.00;;;6.30;82.20;;;;;;5075381;28;20044;-77
2021/03/19 08:57:45;;;;;;;3.35;0.80;;;6.40;83.10;;;;;;5054680;28;20044;-77
2021/03/19 09:00:20;;;;;;;2.65;0.80;;;6.50;82.00;;;;;;5037062;28;20067;-78
2021/03/19 09:02:49;;;;;;;3.33;0.93;;;6.60;82.90;;;;;;5074862;28;20383;-78
2021/03/19 09:05:36;;;;;;;3.30;1.20;;;6.70;83.20;;;;;;5039524;28;20035;-77
2021/03/19 09:08:19;;;;;;;4.47;1.20;;;6.80;80.50;;;;;;5038074;28;20032;-78
2021/03/19 09:10:45;;;;;;;5.53;1.50;;;6.80;80.70;;;;;;5056142;28;20051;-81
2021/03/19 09:13:16;;;;;;;5.23;1.60;;;6.90;78.20;;;;;;5053735;28;20047;-77
2021/03/19 09:15:45;;;;;;;4.22;1.48;;;6.90;78.90;;;;;;5078671;28;20067;-83
2021/03/19 09:18:12;;;;;;;6.03;1.33;;;6.90;79.10;;;;;;5077651;28;20040;-79
2021/03/19 09:20:40;;;;;;;3.90;1.58;;;6.90;78.70;;;;;;5054548;28;20044;-81
2021/03/19 09:23:12;;;;;;;5.70;1.65;;;7.00;79.50;;;;;;5043264;28;20032;-78
2021/03/19 09:26:03;;;;;;;6.75;3.50;;;7.00;79.50;;;;;;5080219;28;20036;-78
2021/03/19 09:28:39;;;;;;;7.15;1.98;;;7.20;78.20;;;;;;5073334;28;20036;-78
2021/03/19 09:31:31;;;;;;;4.97;1.48;;;7.20;76.50;;;;;;5059025;28;20037;-76
2021/03/19 09:34:10;;;;;;;7.40;1.35;;;7.20;77.30;;;;;;5050500;28;20479;-77
2021/03/19 09:36:59;;;;;;;3.45;1.42;;;7.20;77.00;;;;;;5056855;28;20047;-77
2021/03/19 09:39:56;;;;;;;6.57;1.25;;;7.30;78.10;;;;;;5055225;28;20048;-77
2021/03/19 09:42:24;;;;;;;2.35;1.35;;;7.30;76.70;;;;;;5038850;28;20486;-76
2021/03/19 09:44:59;;;;;;;3.70;1.65;;;7.30;78.00;;;;;;5056223;28;20040;-76
2021/03/19 09:47:36;;;;;;;5.10;1.60;;;7.40;77.30;;;;;;5071118;28;20048;-76
2021/03/19 09:50:08;;;;;;;2.67;1.60;;;7.50;75.50;;;;;;5053987;28;20028;-75
2021/03/19 09:52:36;;;;;;;4.88;1.40;;;7.60;76.80;;;;;;5053386;28;20040;-75
2021/03/19 09:55:16;;;;;;;3.15;0.90;;;7.70;74.40;;;;;;5022457;28;20041;-75
2021/03/19 09:57:43;;;;;;;3.17;1.38;;;7.70;73.70;;;;;;5056810;28;20122;-76
2021/03/19 10:00:19;;;;;;;3.38;1.65;;;7.80;73.40;;;;;;5059754;28;20140;-75
2021/03/19 10:02:45;;;;;;;4.05;1.45;;;7.90;73.40;;;;;;5039509;28;20040;-75
2021/03/19 10:05:22;;;;;;;4.22;1.58;;;7.90;72.50;;;;;;5038897;28;20052;-75
2021/03/19 10:07:58;;;;;;;5.45;1.73;;;7.90;71.00;;;;;;5052765;28;20029;-76
2021/03/19 10:10:32;;;;;;;4.75;1.48;;;7.90;73.20;;;;;;5067720;28;20036;-76
2021/03/19 10:13:21;;;;;;;4.85;1.70;;;8.00;74.20;;;;;;5050822;28;20036;-75
2021/03/19 10:15:51;;;;;;;6.63;2.30;;;8.10;72.30;;;;;;5063624;28;20344;-76
2021/03/19 10:18:36;;;;;;;6.47;2.33;;;8.20;73.50;;;;;;5068009;28;20044;-76
2021/03/19 10:21:14;;;;;;;7.25;2.47;;;8.30;74.60;;;;;;5063089;28;20055;-74
2021/03/19 10:24:02;;;;;;;5.53;2.25;;;8.40;74.30;;;;;;5065869;28;20037;-75
2021/03/19 10:26:44;;;;;;;5.60;2.53;;;8.80;75.30;;;;;;5066182;28;20035;-75
2021/03/19 10:29:13;;;;;;;5.55;2.58;;;9.20;75.40;;;;;;5079060;28;21142;-76
2021/03/19 10:31:52;;;;;;;5.60;2.42;;;9.50;72.40;;;;;;5051247;28;20475;-76
2021/03/19 10:34:31;;;;;;;4.53;1.60;;;9.80;70.30;;;;;;5071406;28;20036;-76
2021/03/19 10:37:08;;;;;;;4.93;1.60;;;9.80;69.40;;;;;;5051911;28;20055;-77
2021/03/19 10:39:50;;;;;;;3.85;1.73;;;9.80;65.10;;;;;;5068103;28;20040;-76
2021/03/19 10:42:20;;;;;;;;;;;9.90;68.90;;;;;;5073209;28;20043;-83
2021/03/19 10:45:06;;;;;;;6.65;2.10;;;10.10;69.40;;;;;;5082945;28;19923;-83
2021/03/19 10:47:43;;;;;;;5.28;1.88;;;10.30;64.30;;;;;;5045972;28;20032;-83
2021/03/19 10:50:20;;;;;;;5.63;1.70;;;10.50;64.70;;;;;;5081337;28;20036;-83
2021/03/19 10:52:57;;;;;;;4.88;1.50;;;10.70;66.80;;;;;;5081387;28;20048;-82
2021/03/19 10:55:32;;;;;;;4.72;1.58;;;10.90;64.60;;;;;;5076116;28;20047;-82
2021/03/19 10:58:23;;;;;;;7.22;1.42;;;11.20;63.20;;;;;;5073898;28;20056;-82
2021/03/19 11:00:52;;;;;;;3.58;1.55;;;11.20;61.90;;;;;;5049563;28;20044;-82
2021/03/19 11:03:36;;;;;;;4.60;1.30;;;11.30;61.80;;;;;;5079413;28;20044;-82
2021/03/19 11:06:07;;;;;;;6.05;1.30;;;11.50;62.80;;;;;;5062881;28;20033;-82
2021/03/19 11:08:35;;;;;;;5.88;1.90;;;11.70;61.10;;;;;;5080734;28;20055;-81
2021/03/19 11:11:03;;;;;;;3.70;1.23;;;12.10;60.90;;;;;;5048577;28;20048;-81
2021/03/19 11:13:36;;;;;;;4.20;1.10;;;12.30;61.90;;;;;;5058570;28;20779;-82
2021/03/19 11:16:06;;;;;;;7.47;1.27;;;12.70;60.00;;;;;;5062371;28;20036;-81
2021/03/19 11:18:38;;;;;;;4.95;1.83;;;12.80;57.50;;;;;;5060076;28;20395;-81
2021/03/19 11:21:08;;;;;;;2.80;0.95;;;13.00;54.10;;;;;;5076740;28;20459;-81
2021/03/19 11:23:42;;;;;;;3.17;0.90;;;13.20;56.80;;;;;;5052920;28;20035;-81
2021/03/19 11:26:23;;;;;;;2.92;1.05;;;13.50;53.70;;;;;;5052169;28;20035;-82
2021/03/19 11:29:14;;;;;;;3.53;1.30;;;13.70;53.60;;;;;;5055404;28;20036;-81
2021/03/19 11:31:59;;;;;;;3.80;1.30;;;14.00;54.40;;;;;;5057275;28;20041;-81
2021/03/19 11:34:38;;;;;;;4.50;1.42;;;14.30;54.30;;;;;;5058882;28;20035;-81
2021/03/19 11:37:24;;;;;;;3.85;1.45;;;14.40;50.50;;;;;;5038584;28;20041;-81
2021/03/19 11:40:07;;;;;;;2.08;0.70;;;14.40;50.90;;;;;;5042613;28;20051;-82
2021/03/19 11:42:39;;;;;;;2.90;0.70;;;14.50;52.30;;;;;;5064954;28;21163;-82
2021/03/19 11:45:16;;;;;;;3.20;0.85;;;14.60;52.40;;;;;;5064892;28;20059;-82
2021/03/19 11:47:57;;;;;;;3.40;1.17;;;14.60;51.30;;;;;;5062759;28;20399;-83
2021/03/19 11:50:25;;;;;;;2.17;0.60;;;14.60;50.10;;;;;;5066808;28;20039;-81
2021/03/19 11:52:56;;;;;;;2.03;1.00;;;14.70;49.30;;;;;;5080874;28;20043;-81
2021/03/19 11:55:29;;;;;;;1.95;0.68;;;14.90;50.00;;;;;;5061815;28;20771;-80
2021/03/19 11:57:56;;;;;;;1.95;0.70;;;15.20;50.00;;;;;;5059982;28;20032;-80
2021/03/19 12:00:26;;;;;;;1.90;0.40;;;15.40;47.80;;;;;;5061870;28;20033;-87
2021/03/19 12:02:57;;;;;;;2.95;0.60;;;15.10;44.20;;;;;;5079089;28;20103;-88
2021/03/19 12:05:23;;;;;;;3.13;1.02;;;14.80;45.20;;;;;;5062305;28;20482;-84
2021/03/19 12:07:50;;;;;;;1.95;0.50;;;14.90;44.80;;;;;;5056646;28;20036;-83
2021/03/19 12:10:19;;;;;;;1.77;0.50;;;15.10;44.70;;;;;;5068513;28;20045;-84
2021/03/19 12:12:46;;;;;;;2.28;0.50;;;15.30;43.40;;;;;;5087250;28;20043;-83
2021/03/19 12:15:16;;;;;;;2.05;0.50;;;15.50;42.20;;;;;;5064677;28;20048;-82
2021/03/19 12:17:44;;;;;;;5.18;3.58;;;15.70;43.20;;;;;;5075710;28;20128;-82
2021/03/19 12:20:12;;;;;;;10.88;5.60;;;16.00;43.50;;;;;;5065483;28;20032;-83
2021/03/19 12:22:40;;;;;;;3.28;1.00;;;16.20;43.10;;;;;;5081304;28;20053;-83
2021/03/19 12:25:13;;;;;;;4.00;1.00;;;16.30;42.90;;;;;;5070506;28;20032;-82
2021/03/19 12:27:40;;;;;;;1.83;0.90;;;15.90;44.20;;;;;;5077664;28;20036;-84
2021/03/19 12:30:07;;;;;;;5.90;3.03;;;15.30;41.40;;;;;;5068019;28;20024;-84
2021/03/19 12:32:34;;;;;;;24.52;15.18;;;14.40;43.70;;;;;;5065322;28;20036;-82
2021/03/19 12:35:00;;;;;;;5.00;2.17;;;14.30;45.60;;;;;;5035376;28;20410;-83
2021/03/19 12:37:27;;;;;;;3.30;0.70;;;14.90;44.10;;;;;;5068527;28;20395;-84
2021/03/19 12:39:53;;;;;;;1.33;0.50;;;15.50;43.60;;;;;;5046792;28;20051;-85
2021/03/19 12:42:20;;;;;;;2.30;0.85;;;15.90;42.00;;;;;;5072860;28;20036;-85
2021/03/19 12:44:47;;;;;;;1.60;0.60;;;15.60;43.90;;;;;;5068143;28;20043;-84
2021/03/19 12:47:14;;;;;;;1.88;0.68;;;15.70;43.30;;;;;;5076162;28;20041;-82
2021/03/19 12:49:40;;;;;;;2.63;1.30;;;16.10;42.10;;;;;;5047471;28;20040;-79
2021/03/19 12:52:07;;;;;;;2.70;0.90;;;16.50;40.60;;;;;;5075940;28;20036;-80
2021/03/19 12:54:34;;;;;;;2.28;1.00;;;16.90;40.80;;;;;;5067529;28;20043;-84
2021/03/19 12:57:01;;;;;;;1.10;0.50;;;17.30;37.80;;;;;;5078787;28;20528;-83
2021/03/19 12:59:27;;;;;;;1.42;0.60;;;17.50;37.30;;;;;;5074211;28;20379;-83
2021/03/19 13:01:54;;;;;;;1.63;0.50;;;17.60;36.50;;;;;;5077007;28;20514;-83
2021/03/19 13:04:21;;;;;;;1.30;0.35;;;17.70;36.00;;;;;;5080933;28;20551;-86
2021/03/19 13:06:48;;;;;;;1.10;0.40;;;17.60;36.00;;;;;;5048922;28;20032;-85
2021/03/19 13:09:14;;;;;;;1.67;0.40;;;17.60;35.70;;;;;;5055770;28;20040;-85
2021/03/19 13:11:41;;;;;;;4.63;0.70;;;17.70;35.00;;;;;;5063622;28;20039;-84
2021/03/19 13:14:08;;;;;;;1.35;0.50;;;18.00;36.30;;;;;;5077206;28;20039;-82
2021/03/19 13:16:35;;;;;;;1.17;0.40;;;18.20;35.80;;;;;;5080013;28;20051;-83
2021/03/19 13:19:03;;;;;;;1.08;0.30;;;17.80;35.40;;;;;;5077240;28;20059;-83
2021/03/19 13:21:30;;;;;;;2.97;0.63;;;17.70;36.10;;;;;;5068861;28;20488;-83
2021/03/19 13:23:59;;;;;;;0.98;0.40;;;17.40;36.90;;;;;;5079810;28;20040;-83
2021/03/19 13:26:29;;;;;;;1.63;0.50;;;16.40;37.60;;;;;;5078070;28;20051;-82